Terminal Aerodrome Forecast
Issued by NWS Omaha/Valley, NE

Home | Current Version | Previous Version | Graphics & Text | Print | Product List | Glossary On
Versions: 1 2 3 4 5 6 7 8 9 10 11 12 13 14 15 16 17 18 19 20 21 22 23 24 25 26 27 28 29 30
968
FTUS43 KOAX 190705 AAA
TAFOFK
TAF AMD
KOFK 190705Z 1907/2006 33005KT P6SM SCT250
     FM191100 34004KT 6SM BR SCT250
      TEMPO 1911/1913 2SM BR SCT003
     FM191600 07005KT P6SM FEW250
     FM192100 12008KT P6SM FEW030=

USA.gov is the U.S. government's official web portal to all federal, state and local government web resources and services.